aviador You're here:

KY50 Decoded Metar

in _UNIDENTIFIED
Report Time2018-07-22 23:56:00
UTC Time2018-07-23 00:18:00
Flight Rules vfr VFR
Wind050° at 07 kt
W.Rank050° ranks 13
Current wind is below 050° avg. (7.2)
Visibility9999 m
Phenomena:N/A
Clouds:N/A
Expected CloudBase > 3,600 ft AGL from Temp-Dew spread
CeilingNone
Temp26°C (ISA +13)
Dew Point17°C (58% RH)
AAT25.9°C
QNH1015 hPa
Density Alt2,520 ft
Elevation860 ft
Report Wrong Elevation
Raw Report
KY50 222356Z AUTO 05007KT 10SM CLR 26/17 A2998 RMK AO2 SLP167
6//// T02560172 10261 20228 53003=

Extra information for KY50:More info

Metar Taf Metar & Taf Last 4 Metars F.Rules Stats Wind Profile Meteogram Temp Stats Metar ALERT Operation Metar Decoded Social comments